createdAt,value
2022-10-23T00:00:03.649Z,18.80
2022-10-23T00:02:30.892Z,18.90
2022-10-23T00:04:57.603Z,18.90
2022-10-23T00:07:24.360Z,18.90
2022-10-23T00:09:51.839Z,18.90
2022-10-23T00:12:18.514Z,18.90
2022-10-23T00:14:45.144Z,18.80
2022-10-23T00:17:12.691Z,18.90
2022-10-23T00:19:39.467Z,18.90
2022-10-23T00:22:07.176Z,18.90
2022-10-23T00:24:34.243Z,18.80
2022-10-23T00:27:00.963Z,18.90
2022-10-23T00:29:28.342Z,18.90
2022-10-23T00:31:55.012Z,18.80
2022-10-23T00:34:21.651Z,18.90
2022-10-23T00:36:48.367Z,18.90
2022-10-23T00:39:15.018Z,18.90
2022-10-23T00:41:42.913Z,18.90
2022-10-23T00:44:30.011Z,18.90
2022-10-23T00:46:57.396Z,18.90
2022-10-23T00:49:25.387Z,18.80
2022-10-23T00:51:53.793Z,18.90
2022-10-23T00:54:24.453Z,18.80
2022-10-23T00:56:52.882Z,18.80
2022-10-23T00:59:19.540Z,18.80
2022-10-23T01:01:46.417Z,18.80
2022-10-23T01:04:13.288Z,18.80
2022-10-23T01:06:45.278Z,18.80
2022-10-23T01:09:18.869Z,18.80
2022-10-23T01:11:49.170Z,18.80
2022-10-23T01:14:23.401Z,18.80
2022-10-23T01:16:56.276Z,18.80
2022-10-23T01:19:42.786Z,18.80
2022-10-23T01:22:19.517Z,18.80
2022-10-23T01:24:49.464Z,18.80
2022-10-23T01:27:23.984Z,18.80
2022-10-23T01:30:13.997Z,18.80
2022-10-23T01:32:55.514Z,18.80
2022-10-23T01:35:26.844Z,18.70
2022-10-23T01:38:20.868Z,18.70
2022-10-23T01:40:49.953Z,18.70
2022-10-23T01:43:19.663Z,18.70
2022-10-23T01:45:50.732Z,18.70
2022-10-23T01:48:23.331Z,18.70
2022-10-23T01:50:50.775Z,18.70
2022-10-23T01:53:18.854Z,18.70
2022-10-23T01:55:47.081Z,18.70
2022-10-23T01:58:21.958Z,18.60
2022-10-23T02:00:51.752Z,18.70
2022-10-23T02:03:20.120Z,18.60
2022-10-23T02:05:46.900Z,18.60
2022-10-23T02:08:13.602Z,18.60
2022-10-23T02:10:47.922Z,18.60
2022-10-23T02:13:15.498Z,18.60
2022-10-23T02:15:48.470Z,18.60
2022-10-23T02:18:33.176Z,18.60
2022-10-23T02:21:09.293Z,18.60
2022-10-23T02:23:39.356Z,18.60
2022-10-23T02:26:26.272Z,18.60
2022-10-23T02:29:10.966Z,18.60
2022-10-23T02:31:40.883Z,18.60
2022-10-23T02:34:07.569Z,18.60
2022-10-23T02:36:34.244Z,18.60
2022-10-23T02:39:01.767Z,18.60
2022-10-23T02:41:37.967Z,18.60
2022-10-23T02:44:19.207Z,18.60
2022-10-23T02:46:45.898Z,18.60
2022-10-23T02:49:22.331Z,18.50
2022-10-23T02:51:54.909Z,18.50
2022-10-23T02:54:45.032Z,18.50
2022-10-23T02:57:17.652Z,18.50
2022-10-23T02:59:56.225Z,18.50
2022-10-23T03:02:25.902Z,18.50
2022-10-23T03:04:54.182Z,18.50
2022-10-23T03:07:21.101Z,18.50
2022-10-23T03:09:48.372Z,18.50
2022-10-23T03:12:15.001Z,18.50
2022-10-23T03:14:41.777Z,18.40
2022-10-23T03:17:09.561Z,18.40
2022-10-23T03:19:36.345Z,18.40
2022-10-23T03:22:04.310Z,18.40
2022-10-23T03:24:31.020Z,18.50
2022-10-23T03:26:57.627Z,18.50
2022-10-23T03:29:30.624Z,18.50
2022-10-23T03:31:57.537Z,18.50
2022-10-23T03:34:24.296Z,18.50
2022-10-23T03:36:53.230Z,18.40
2022-10-23T03:39:20.814Z,18.40
2022-10-23T03:41:48.105Z,18.40
2022-10-23T03:44:16.424Z,18.40
2022-10-23T03:46:44.786Z,18.40
2022-10-23T03:49:11.624Z,18.40
2022-10-23T03:51:42.484Z,18.40
2022-10-23T03:54:09.213Z,18.40
2022-10-23T03:56:37.624Z,18.40
2022-10-23T03:59:07.107Z,18.30
2022-10-23T04:01:33.897Z,18.30
2022-10-23T04:04:00.864Z,18.30
2022-10-23T04:06:28.386Z,18.30
2022-10-23T04:08:57.516Z,18.30
2022-10-23T04:11:24.152Z,18.30
2022-10-23T04:13:50.904Z,18.40
2022-10-23T04:16:17.629Z,18.30
2022-10-23T04:18:44.952Z,18.30
2022-10-23T04:21:11.848Z,18.30
2022-10-23T04:23:39.009Z,18.30
2022-10-23T04:26:11.289Z,18.30
2022-10-23T04:28:38.167Z,18.30
2022-10-23T04:31:04.941Z,18.30
2022-10-23T04:33:31.676Z,18.30
2022-10-23T04:35:58.368Z,18.30
2022-10-23T04:38:26.096Z,18.30
2022-10-23T04:40:52.836Z,18.30
2022-10-23T04:43:22.977Z,18.30
2022-10-23T04:45:50.171Z,18.30
2022-10-23T04:48:16.971Z,18.30
2022-10-23T04:51:06.683Z,18.30
2022-10-23T04:53:59.191Z,18.30
2022-10-23T04:56:44.225Z,18.20
2022-10-23T04:59:17.257Z,18.30
2022-10-23T05:01:44.609Z,18.20
2022-10-23T05:04:11.296Z,18.20
2022-10-23T05:07:01.417Z,18.20
2022-10-23T05:09:45.775Z,18.20
2022-10-23T05:12:50.731Z,18.20
2022-10-23T05:15:17.686Z,18.20
2022-10-23T05:17:46.590Z,18.20
2022-10-23T05:20:18.343Z,18.20
2022-10-23T05:22:46.020Z,18.20
2022-10-23T05:25:14.522Z,18.20
2022-10-23T05:27:47.194Z,18.30
2022-10-23T05:30:15.891Z,18.30
2022-10-23T05:32:42.806Z,18.20
2022-10-23T05:35:12.748Z,18.30
2022-10-23T05:37:40.919Z,18.20
2022-10-23T05:40:19.284Z,18.20
2022-10-23T05:42:47.413Z,18.20
2022-10-23T05:45:17.282Z,18.20
2022-10-23T05:48:30.021Z,18.20
2022-10-23T05:51:12.641Z,18.20
2022-10-23T05:53:49.280Z,18.20
2022-10-23T05:56:33.692Z,18.20
2022-10-23T05:59:05.803Z,18.20
2022-10-23T06:01:57.575Z,18.20
2022-10-23T06:04:35.903Z,18.30
2022-10-23T06:07:25.410Z,18.20
2022-10-23T06:09:54.303Z,18.20
2022-10-23T06:12:21.703Z,18.20
2022-10-23T06:14:51.002Z,18.20
2022-10-23T06:17:18.805Z,18.10
2022-10-23T06:19:46.855Z,18.20
2022-10-23T06:22:17.240Z,18.20
2022-10-23T06:24:51.334Z,18.20
2022-10-23T06:27:23.679Z,18.20
2022-10-23T06:29:51.006Z,18.30
2022-10-23T06:32:18.622Z,18.40
2022-10-23T06:34:57.759Z,18.30
2022-10-23T06:37:25.912Z,18.30
2022-10-23T06:40:05.600Z,18.20
2022-10-23T06:42:51.047Z,18.20
2022-10-23T06:45:32.495Z,18.20
2022-10-23T06:48:28.337Z,18.20
2022-10-23T06:51:03.743Z,18.20
2022-10-23T06:53:38.412Z,18.20
2022-10-23T06:56:12.900Z,18.10
2022-10-23T06:58:40.197Z,18.10
2022-10-23T07:01:13.534Z,18.10
2022-10-23T07:03:42.592Z,18.10
2022-10-23T07:06:10.253Z,18.10
2022-10-23T07:08:37.972Z,18.10
2022-10-23T07:11:15.781Z,18.10
2022-10-23T07:13:46.507Z,18.20
2022-10-23T07:16:17.828Z,18.10
2022-10-23T07:18:45.175Z,18.10
2022-10-23T07:21:27.568Z,18.20
2022-10-23T07:23:59.092Z,18.30
2022-10-23T07:26:26.096Z,18.20
2022-10-23T07:28:55.143Z,18.10
2022-10-23T07:31:27.246Z,18.10
2022-10-23T07:34:13.436Z,18.10
2022-10-23T07:36:41.213Z,18.10
2022-10-23T07:39:08.898Z,18.10
2022-10-23T07:41:41.659Z,18.00
2022-10-23T07:44:08.649Z,18.00
2022-10-23T07:46:35.583Z,18.00
2022-10-23T07:49:02.257Z,18.00
2022-10-23T07:51:29.468Z,18.00
2022-10-23T07:53:59.896Z,18.00
2022-10-23T07:56:45.075Z,18.00
2022-10-23T07:59:16.148Z,18.00
2022-10-23T08:01:51.571Z,18.00
2022-10-23T08:04:21.202Z,18.00
2022-10-23T08:06:56.048Z,18.00
2022-10-23T08:09:22.785Z,18.00
2022-10-23T08:11:50.023Z,18.00
2022-10-23T08:14:19.504Z,18.00
2022-10-23T08:16:47.234Z,18.00
2022-10-23T08:19:16.504Z,18.00
2022-10-23T08:21:45.019Z,18.00
2022-10-23T08:24:13.938Z,18.00
2022-10-23T08:26:42.859Z,18.00
2022-10-23T08:29:10.493Z,18.00
2022-10-23T08:31:37.190Z,18.00
2022-10-23T08:34:19.044Z,18.00
2022-10-23T08:36:48.136Z,18.00
2022-10-23T08:39:14.962Z,18.00
2022-10-23T08:41:55.405Z,18.00
2022-10-23T08:44:32.909Z,18.00
2022-10-23T08:47:08.539Z,18.00
2022-10-23T08:49:56.071Z,18.00
2022-10-23T08:52:33.905Z,18.00
2022-10-23T08:55:27.060Z,17.90
2022-10-23T08:57:57.560Z,17.90
2022-10-23T09:00:24.260Z,17.90
2022-10-23T09:02:52.231Z,17.90
2022-10-23T09:05:27.076Z,17.90
2022-10-23T09:07:59.803Z,17.90
2022-10-23T09:10:51.573Z,17.90
2022-10-23T09:13:34.187Z,17.90
2022-10-23T09:16:15.727Z,17.90
2022-10-23T09:18:42.845Z,17.90
2022-10-23T09:21:10.324Z,18.00
2022-10-23T09:23:37.272Z,17.90
2022-10-23T09:26:12.396Z,17.90
2022-10-23T09:28:45.288Z,17.90
2022-10-23T09:31:12.468Z,17.90
2022-10-23T09:33:39.434Z,17.90
2022-10-23T09:36:07.785Z,17.90
2022-10-23T09:38:36.130Z,17.90
2022-10-23T09:41:18.083Z,17.90
2022-10-23T09:43:44.781Z,17.90
2022-10-23T09:46:12.373Z,18.00
2022-10-23T09:48:40.148Z,18.00
2022-10-23T09:51:17.388Z,18.00
2022-10-23T09:53:55.147Z,18.00
2022-10-23T09:56:24.895Z,18.00
2022-10-23T09:59:06.911Z,18.00
2022-10-23T10:01:46.792Z,18.00
2022-10-23T10:04:38.596Z,18.00
2022-10-23T10:07:06.881Z,18.00
2022-10-23T10:09:33.968Z,18.00
2022-10-23T10:12:11.389Z,18.00
2022-10-23T10:14:49.044Z,18.00
2022-10-23T10:17:33.420Z,18.00
2022-10-23T10:20:17.917Z,18.00
2022-10-23T10:22:44.574Z,18.00
2022-10-23T10:25:11.270Z,18.00
2022-10-23T10:27:46.944Z,18.00
2022-10-23T10:30:16.333Z,18.00
2022-10-23T10:32:50.124Z,18.00
2022-10-23T10:35:49.152Z,18.00
2022-10-23T10:38:15.798Z,18.00
2022-10-23T10:40:47.208Z,18.00
2022-10-23T10:43:31.972Z,18.00
2022-10-23T10:48:51.356Z,18.10
2022-10-23T10:51:52.553Z,18.10
2022-10-23T10:54:28.857Z,18.10
2022-10-23T10:56:56.975Z,18.10
2022-10-23T10:59:27.321Z,18.10
2022-10-23T11:02:05.687Z,18.00
2022-10-23T11:04:38.340Z,18.00
2022-10-23T11:07:07.342Z,18.00
2022-10-23T11:09:34.050Z,18.00
2022-10-23T11:12:00.827Z,18.00
2022-10-23T11:14:29.008Z,18.00
2022-10-23T11:16:58.893Z,18.00
2022-10-23T11:19:28.778Z,18.00
2022-10-23T11:22:01.200Z,18.00
2022-10-23T11:24:49.459Z,18.00
2022-10-23T11:27:31.122Z,18.00
2022-10-23T11:30:13.077Z,18.00
2022-10-23T11:32:50.663Z,18.00
2022-10-23T11:35:30.579Z,18.00
2022-10-23T11:38:01.367Z,18.00
2022-10-23T11:40:29.015Z,18.10
2022-10-23T11:42:55.672Z,18.10
2022-10-23T11:45:31.637Z,18.00
2022-10-23T11:48:13.594Z,18.00
2022-10-23T11:50:46.367Z,18.10
2022-10-23T11:53:31.364Z,18.00
2022-10-23T11:56:01.172Z,18.00
2022-10-23T11:58:32.171Z,18.10
2022-10-23T12:01:25.529Z,18.10
2022-10-23T12:03:53.759Z,18.10
2022-10-23T12:06:23.368Z,18.10
2022-10-23T12:08:51.396Z,18.10
2022-10-23T12:11:27.544Z,18.10
2022-10-23T12:13:54.664Z,18.10
2022-10-23T12:16:21.380Z,18.10
2022-10-23T12:18:49.504Z,18.10
2022-10-23T12:21:20.672Z,18.10
2022-10-23T12:24:09.933Z,18.10
2022-10-23T12:26:46.707Z,18.10
2022-10-23T12:29:19.276Z,18.10
2022-10-23T12:31:48.755Z,18.10
2022-10-23T12:34:34.203Z,18.10
2022-10-23T12:37:19.364Z,18.10
2022-10-23T12:39:51.594Z,18.10
2022-10-23T12:42:25.145Z,18.10
2022-10-23T12:44:58.683Z,18.10
2022-10-23T12:47:25.509Z,18.10
2022-10-23T12:49:52.467Z,18.10
2022-10-23T12:52:21.031Z,18.10
2022-10-23T12:54:47.777Z,18.10
2022-10-23T12:57:30.227Z,18.10
2022-10-23T12:59:59.044Z,18.10
2022-10-23T13:02:27.135Z,18.10
2022-10-23T13:04:57.560Z,18.10
2022-10-23T13:07:26.238Z,18.10
2022-10-23T13:09:56.299Z,18.10
2022-10-23T13:12:32.467Z,18.10
2022-10-23T13:15:01.106Z,18.10
2022-10-23T13:17:56.993Z,18.10
2022-10-23T13:20:26.437Z,18.10
2022-10-23T13:22:59.435Z,18.10
2022-10-23T13:25:31.703Z,18.10
2022-10-23T13:28:07.668Z,18.10
2022-10-23T13:30:38.058Z,18.10
2022-10-23T13:33:24.711Z,18.10
2022-10-23T13:36:02.106Z,18.10
2022-10-23T13:38:32.758Z,18.10
2022-10-23T13:41:00.468Z,18.10
2022-10-23T13:43:27.678Z,18.10
2022-10-23T13:45:54.370Z,18.10
2022-10-23T13:48:21.093Z,18.10
2022-10-23T13:50:47.943Z,18.10
2022-10-23T13:53:15.403Z,18.10
2022-10-23T13:55:47.524Z,18.10
2022-10-23T13:58:14.251Z,18.10
2022-10-23T14:00:43.252Z,18.10
2022-10-23T14:03:10.790Z,18.10
2022-10-23T14:05:37.489Z,18.10
2022-10-23T14:08:04.149Z,18.10
2022-10-23T14:10:30.988Z,18.10
2022-10-23T14:12:57.668Z,18.10
2022-10-23T14:15:24.365Z,18.10
2022-10-23T14:17:54.194Z,18.10
2022-10-23T14:20:25.671Z,18.20
2022-10-23T14:22:53.817Z,18.20
2022-10-23T14:25:20.601Z,18.20
2022-10-23T14:27:47.271Z,18.20
2022-10-23T14:30:13.990Z,18.20
2022-10-23T14:32:40.906Z,18.20
2022-10-23T14:35:07.926Z,18.30
2022-10-23T14:37:34.739Z,18.30
2022-10-23T14:40:01.456Z,18.30
2022-10-23T14:42:34.021Z,18.20
2022-10-23T14:45:04.012Z,18.20
2022-10-23T14:47:31.123Z,18.20
2022-10-23T14:49:58.040Z,18.20
2022-10-23T14:52:24.731Z,18.20
2022-10-23T14:54:53.099Z,18.20
2022-10-23T14:57:21.646Z,18.20
2022-10-23T14:59:48.783Z,18.20
2022-10-23T15:02:15.974Z,18.20
2022-10-23T15:04:42.780Z,18.20
2022-10-23T15:07:09.452Z,18.20
2022-10-23T15:09:36.603Z,18.20
2022-10-23T15:12:04.281Z,18.20
2022-10-23T15:14:31.028Z,18.20
2022-10-23T15:16:57.683Z,18.20
2022-10-23T15:19:24.614Z,18.20
2022-10-23T15:21:52.454Z,18.20
2022-10-23T15:24:20.736Z,18.20
2022-10-23T15:26:47.606Z,18.20
2022-10-23T15:29:15.077Z,18.20
2022-10-23T15:31:42.854Z,18.20
2022-10-23T15:34:10.752Z,18.20
2022-10-23T15:36:37.476Z,18.20
2022-10-23T15:39:11.193Z,18.20
2022-10-23T15:41:39.427Z,18.20
2022-10-23T15:44:06.896Z,18.20
2022-10-23T15:46:33.914Z,18.20
2022-10-23T15:49:00.629Z,18.20
2022-10-23T15:51:27.418Z,18.20
2022-10-23T15:53:54.184Z,18.20
2022-10-23T15:56:20.912Z,18.20
2022-10-23T15:58:47.730Z,18.20
2022-10-23T16:01:14.780Z,18.20
2022-10-23T16:03:41.589Z,18.20
2022-10-23T16:06:09.499Z,18.30
2022-10-23T16:08:36.827Z,18.30
2022-10-23T16:11:04.400Z,18.20
2022-10-23T16:13:31.241Z,18.20
2022-10-23T16:16:02.335Z,18.20
2022-10-23T16:18:29.155Z,18.20
2022-10-23T16:20:55.989Z,18.20
2022-10-23T16:23:22.856Z,18.20
2022-10-23T16:25:51.020Z,18.20
2022-10-23T16:28:17.732Z,18.30
2022-10-23T16:30:44.476Z,18.30
2022-10-23T16:33:11.449Z,18.30
2022-10-23T16:35:38.144Z,18.30
2022-10-23T16:38:13.582Z,18.30
2022-10-23T16:40:40.291Z,18.30
2022-10-23T16:43:38.321Z,18.30
2022-10-23T16:46:24.800Z,18.40
2022-10-23T16:48:51.956Z,18.40
2022-10-23T16:51:20.007Z,18.40
2022-10-23T16:53:47.368Z,18.40
2022-10-23T16:56:18.066Z,18.40
2022-10-23T16:58:45.140Z,18.40
2022-10-23T17:01:13.739Z,18.40
2022-10-23T17:03:41.718Z,18.40
2022-10-23T17:06:11.311Z,18.40
2022-10-23T17:08:38.364Z,18.40
2022-10-23T17:11:12.924Z,18.40
2022-10-23T17:13:40.964Z,18.40
2022-10-23T17:16:15.441Z,18.40
2022-10-23T17:18:44.039Z,18.40
2022-10-23T17:21:11.622Z,18.40
2022-10-23T17:23:38.354Z,18.40
2022-10-23T17:26:07.668Z,18.40
2022-10-23T17:28:39.698Z,18.40
2022-10-23T17:31:16.881Z,18.40
2022-10-23T17:33:44.474Z,18.50
2022-10-23T17:36:11.863Z,18.50
2022-10-23T17:38:39.409Z,18.50
2022-10-23T17:41:07.414Z,18.50
2022-10-23T17:43:34.815Z,18.50
2022-10-23T17:46:02.912Z,18.50
2022-10-23T17:48:29.604Z,18.50
2022-10-23T17:51:03.289Z,18.50
2022-10-23T17:53:30.180Z,18.50
2022-10-23T17:55:57.148Z,18.50
2022-10-23T17:58:23.850Z,18.50
2022-10-23T18:00:50.547Z,18.50
2022-10-23T18:03:19.937Z,18.60
2022-10-23T18:05:46.753Z,18.60
2022-10-23T18:08:13.661Z,18.60
2022-10-23T18:10:40.355Z,18.60
2022-10-23T18:13:07.011Z,18.60
2022-10-23T18:15:34.636Z,18.60
2022-10-23T18:18:01.833Z,18.60
2022-10-23T18:20:28.499Z,18.60
2022-10-23T18:22:55.148Z,18.60
2022-10-23T18:25:22.087Z,18.60
2022-10-23T18:27:48.740Z,18.60
2022-10-23T18:30:15.469Z,18.60
2022-10-23T18:32:42.270Z,18.70
2022-10-23T18:35:09.232Z,18.70
2022-10-23T18:37:41.222Z,18.70
2022-10-23T18:40:08.521Z,18.70
2022-10-23T18:42:35.290Z,18.70
2022-10-23T18:45:02.045Z,18.70
2022-10-23T18:47:28.644Z,18.70
2022-10-23T18:49:55.341Z,18.70
2022-10-23T18:52:22.038Z,18.70
2022-10-23T18:54:48.694Z,18.70
2022-10-23T18:57:15.327Z,18.60
2022-10-23T18:59:42.102Z,18.60
2022-10-23T19:02:10.043Z,18.60
2022-10-23T19:04:36.749Z,18.60
2022-10-23T19:07:03.420Z,18.60
2022-10-23T19:09:30.050Z,18.60
2022-10-23T19:11:56.698Z,18.60
2022-10-23T19:14:23.535Z,18.60
2022-10-23T19:17:01.430Z,18.60
2022-10-23T19:19:40.037Z,18.60
2022-10-23T19:22:08.125Z,18.60
2022-10-23T19:24:45.276Z,18.60
2022-10-23T19:27:12.006Z,18.60
2022-10-23T19:29:40.842Z,18.60
2022-10-23T19:32:07.752Z,18.60
2022-10-23T19:34:34.471Z,18.60
2022-10-23T19:37:01.290Z,18.60
2022-10-23T19:39:28.152Z,18.60
2022-10-23T19:41:55.076Z,18.60
2022-10-23T19:44:21.947Z,18.60
2022-10-23T19:46:48.650Z,18.70
2022-10-23T19:49:15.761Z,18.60
2022-10-23T19:51:50.730Z,18.60
2022-10-23T19:54:18.407Z,18.70
2022-10-23T19:56:45.019Z,18.70
2022-10-23T19:59:12.987Z,18.70
2022-10-23T20:01:41.866Z,18.60
2022-10-23T20:04:10.503Z,18.70
2022-10-23T20:06:37.464Z,18.70
2022-10-23T20:09:08.022Z,18.70
2022-10-23T20:11:35.461Z,18.70
2022-10-23T20:14:02.238Z,18.70
2022-10-23T20:16:30.501Z,18.70
2022-10-23T20:18:57.932Z,18.70
2022-10-23T20:21:24.770Z,18.80
2022-10-23T20:23:51.512Z,18.70
2022-10-23T20:26:19.150Z,18.80
2022-10-23T20:28:47.060Z,18.70
2022-10-23T20:31:14.814Z,18.80
2022-10-23T20:33:41.966Z,18.80
2022-10-23T20:36:09.946Z,18.70
2022-10-23T20:38:36.647Z,18.60
2022-10-23T20:41:06.950Z,18.60
2022-10-23T20:43:33.971Z,18.60
2022-10-23T20:46:07.525Z,18.60
2022-10-23T20:48:41.558Z,18.60
2022-10-23T20:51:09.439Z,18.60
2022-10-23T20:53:37.004Z,18.60
2022-10-23T20:56:14.290Z,18.50
2022-10-23T20:58:41.066Z,18.60
2022-10-23T21:01:09.544Z,18.60
2022-10-23T21:03:36.803Z,18.60
2022-10-23T21:06:08.493Z,18.60
2022-10-23T21:08:35.287Z,18.60
2022-10-23T21:11:01.943Z,18.60
2022-10-23T21:13:28.980Z,18.50
2022-10-23T21:15:56.083Z,18.50
2022-10-23T21:18:34.172Z,18.50
2022-10-23T21:21:12.101Z,18.60
2022-10-23T21:23:38.987Z,18.50
2022-10-23T21:26:07.452Z,18.60
2022-10-23T21:28:34.783Z,18.60
2022-10-23T21:31:02.450Z,18.50
2022-10-23T21:33:29.483Z,18.50
2022-10-23T21:35:58.407Z,18.60
2022-10-23T21:38:31.471Z,18.50
2022-10-23T21:41:07.913Z,18.50
2022-10-23T21:43:34.616Z,18.50
2022-10-23T21:46:04.958Z,18.50
2022-10-23T21:48:31.865Z,18.50
2022-10-23T21:51:01.339Z,18.50
2022-10-23T21:53:28.473Z,18.50
2022-10-23T21:55:56.040Z,18.50
2022-10-23T21:58:22.775Z,18.50
2022-10-23T22:00:49.398Z,18.50
2022-10-23T22:03:16.590Z,18.50
2022-10-23T22:05:43.215Z,18.50
2022-10-23T22:08:09.881Z,18.50
2022-10-23T22:10:36.579Z,18.50
2022-10-23T22:13:03.540Z,18.50
2022-10-23T22:15:30.188Z,18.60
2022-10-23T22:17:58.843Z,18.60
2022-10-23T22:20:25.580Z,18.60
2022-10-23T22:22:52.248Z,18.60
2022-10-23T22:25:18.932Z,18.60
2022-10-23T22:27:45.703Z,18.60
2022-10-23T22:30:12.887Z,18.50
2022-10-23T22:32:39.648Z,18.60
2022-10-23T22:35:06.540Z,18.60
2022-10-23T22:37:33.751Z,18.60
2022-10-23T22:40:01.671Z,18.60
2022-10-23T22:42:28.538Z,18.70
2022-10-23T22:44:55.312Z,18.60
2022-10-23T22:47:21.934Z,18.60
2022-10-23T22:49:48.599Z,18.60
2022-10-23T22:52:15.283Z,18.60
2022-10-23T22:54:41.996Z,18.70
2022-10-23T22:57:08.626Z,18.70
2022-10-23T22:59:35.596Z,18.60
2022-10-23T23:02:02.197Z,18.60
2022-10-23T23:04:44.058Z,18.60
2022-10-23T23:07:12.480Z,18.60
2022-10-23T23:09:40.208Z,18.70
2022-10-23T23:12:07.587Z,18.70
2022-10-23T23:14:34.227Z,18.70
2022-10-23T23:17:00.934Z,18.60
2022-10-23T23:19:28.441Z,18.60
2022-10-23T23:21:55.972Z,18.60
2022-10-23T23:24:22.727Z,18.60
2022-10-23T23:26:49.411Z,18.60
2022-10-23T23:29:16.170Z,18.60
2022-10-23T23:31:42.898Z,18.60
2022-10-23T23:34:09.704Z,18.60
2022-10-23T23:36:36.409Z,18.60
2022-10-23T23:41:35.687Z,18.60
2022-10-23T23:44:02.332Z,18.60
2022-10-23T23:46:28.959Z,18.60
2022-10-23T23:48:55.766Z,18.50
2022-10-23T23:51:23.030Z,18.50
2022-10-23T23:53:50.158Z,18.50
2022-10-23T23:56:17.290Z,18.50
2022-10-23T23:58:44.070Z,18.50
